Main page
METAR-TAF:

METAR-TAF

Airports :

Military air base

Tulln an der Donau, Austria

latitude: 48-19N, longitude: 016-07E, elevation: 175 m

METAR: missing

Time: 14:47 (12:47 UTC)

Forecast

The report was made 1 hour and 32 minutes ago, at 11:15 UTC
Forecast valid from 18 at 12 UTC to 18 at 21 UTC
Wind 3 kt from variable directions
Visibility: 9000 m
Scattered clouds at a height of 10000 ft
Temporary
from 18 at 19 UTC to 18 at 21 UTC
Visibility: 7000 m

TAF: LOXT 181115Z 1812/1821 VRB03KT 9000 SCT100 TEMPO 1819/1821 7000

Weather observations and forecasts of more than 4000 airports (METAR and TAF reports).

The available stations are represented by yellow and red dots on the map.

Hover mouse over dot to see the name of the station.

Then click to see weather observations and forecasts.

To change the map : click on the green buttons with a black cross to zoom in, on the green button with a dash to zoom out, or on the green arrows for adjacent maps.


METAR-TAF: